Airfield :
LOGIN :

Register | Disclaimer

   EN    FR    IT 

 










Legend :    VFR   Marginal VFR   IFR   Intensive IFR   Very Intensive IFR
Visi :
Ceiling :
>= 8 km
>= 3000ft
5 to 8 km
1000 to 3000 ft
1500m to 5 km
500 to 1000 ft
800 to 1500m
200 to 500 ft
< 800m
< 200 ft
Symbols :   Thunderstorms  Fog  Heavy snow  Heavy precipitations  Wind > 20 kt
SIGMETs :     Misc.  Thunderstorms  Icing  Turbulence  Mountain Waves  Volcanic Ashes







- Airport Elevation : 1306 ft
- IATA code : ACH


LSZR - Alten Rhein

CURRENT METAR :
  • 231650Z 24003KT 9999 VCTS SCT050 BKN090CB 18/12 Q1017 TEMPO SHRA RMK R

EXPIRED METARs :
  • 231620Z AUTO 26003KT 230V290 9999 OVC080 SCT///CB 17/12 Q1017
  • 231550Z 27003KT 9999 FEW060 BKN120 18/12 Q1017 NOSIG RMK O
  • 231520Z 27008KT 9999 FEW027 BKN120 19/11 Q1017 NOSIG RMK N
  • 231450Z 27008KT 9999 FEW027 BKN120 19/11 Q1017 NOSIG RMK N
  • 231420Z 22011G21KT 190V270 9999 FEW027 BKN130 20/12 Q1017 NOSIG RMK M

TAF TAF LSZR
Valid from the 23 at 15:00 until the 24 at 00:00 UTC


231425Z 2315/2324 22010KT 9999 SCT050 BKN130
TEMPO 2316/2324 4500 SHRA SCT060TCU
PROB40
TEMPO 2317/2319 30015G28KT 4000 TSRA SCT040CB
ATIS : +41 71 858 51 66
No reported NOTAMs for that airfield.



MET'MAP, your aeronautical weather chart ! - Copyright ORBIFLY December 2007 - Disclaimer

ORBIFLY MET'MAP TEAM :

Programming & Development : Alexandra Zaïnal
Concept & Development : Baudouin d'Aumeries
Co-Development & Prog : Marc-Olivier Méhu
Technical & hardware support : Manuel Goepfert

Contact : metmap@orbifly.com




SOURCES & CREDITS :

   NOAA